createdAt,value
2022-12-23T00:01:24.575Z,100.00
2022-12-23T00:04:01.406Z,100.00
2022-12-23T00:06:34.263Z,100.00
2022-12-23T00:09:09.723Z,100.00
2022-12-23T00:11:42.987Z,100.00
2022-12-23T00:14:21.441Z,100.00
2022-12-23T00:16:55.085Z,100.00
2022-12-23T00:19:31.210Z,100.00
2022-12-23T00:22:04.980Z,100.00
2022-12-23T00:24:37.886Z,100.00
2022-12-23T00:27:10.828Z,100.00
2022-12-23T00:29:43.785Z,100.00
2022-12-23T00:32:19.177Z,100.00
2022-12-23T00:34:52.207Z,100.00
2022-12-23T00:37:25.310Z,100.00
2022-12-23T00:40:05.868Z,100.00
2022-12-23T00:42:39.514Z,100.00
2022-12-23T00:45:12.456Z,100.00
2022-12-23T00:47:48.519Z,100.00
2022-12-23T00:50:21.778Z,100.00
2022-12-23T00:52:54.702Z,100.00
2022-12-23T00:55:27.856Z,100.00
2022-12-23T00:58:00.765Z,100.00
2022-12-23T01:00:34.072Z,100.00
2022-12-23T01:03:07.028Z,100.00
2022-12-23T01:05:40.143Z,100.00
2022-12-23T01:08:13.189Z,100.00
2022-12-23T01:10:46.145Z,100.00
2022-12-23T01:13:19.780Z,100.00
2022-12-23T01:15:52.671Z,100.00
2022-12-23T01:18:25.611Z,100.00
2022-12-23T01:21:05.860Z,100.00
2022-12-23T01:23:40.161Z,100.00
2022-12-23T01:26:13.133Z,100.00
2022-12-23T01:28:46.074Z,100.00
2022-12-23T01:31:22.927Z,100.00
2022-12-23T01:33:56.727Z,100.00
2022-12-23T01:36:29.595Z,100.00
2022-12-23T01:39:02.604Z,100.00
2022-12-23T01:41:35.627Z,100.00
2022-12-23T01:44:47.130Z,100.00
2022-12-23T01:47:55.968Z,100.00
2022-12-23T01:50:37.836Z,100.00
2022-12-23T01:53:16.819Z,100.00
2022-12-23T01:55:56.876Z,100.00
2022-12-23T01:58:56.756Z,100.00
2022-12-23T02:01:30.408Z,100.00
2022-12-23T02:04:07.722Z,100.00
2022-12-23T02:06:45.346Z,100.00
2022-12-23T02:09:30.591Z,100.00
2022-12-23T02:12:23.095Z,100.00
2022-12-23T02:15:13.866Z,100.00
2022-12-23T02:18:05.404Z,100.00
2022-12-23T02:21:19.197Z,100.00
2022-12-23T02:24:26.177Z,100.00
2022-12-23T02:27:04.895Z,100.00
2022-12-23T02:30:22.342Z,100.00
2022-12-23T02:33:17.273Z,100.00
2022-12-23T02:36:09.241Z,100.00
2022-12-23T02:39:14.469Z,100.00
2022-12-23T02:41:56.563Z,100.00
2022-12-23T02:45:04.667Z,100.00
2022-12-23T02:47:44.642Z,100.00
2022-12-23T02:50:23.621Z,100.00
2022-12-23T02:53:03.797Z,100.00
2022-12-23T02:55:40.129Z,100.00
2022-12-23T02:58:16.440Z,100.00
2022-12-23T03:00:49.976Z,100.00
2022-12-23T03:03:24.998Z,100.00
2022-12-23T03:05:58.364Z,100.00
2022-12-23T03:08:40.681Z,100.00
2022-12-23T03:11:16.587Z,100.00
2022-12-23T03:14:05.547Z,100.00
2022-12-23T03:16:57.075Z,100.00
2022-12-23T03:19:31.682Z,100.00
2022-12-23T03:22:38.280Z,100.00
2022-12-23T03:25:33.860Z,100.00
2022-12-23T03:28:19.250Z,100.00
2022-12-23T03:30:57.053Z,100.00
2022-12-23T03:33:42.452Z,100.00
2022-12-23T03:36:56.976Z,100.00
2022-12-23T03:39:37.930Z,100.00
2022-12-23T03:42:18.502Z,100.00
2022-12-23T03:45:27.864Z,100.00
2022-12-23T03:47:58.564Z,100.00
2022-12-23T03:50:33.772Z,100.00
2022-12-23T03:53:13.981Z,100.00
2022-12-23T03:55:56.574Z,100.00
2022-12-23T03:58:29.389Z,100.00
2022-12-23T04:01:13.435Z,100.00
2022-12-23T04:04:24.788Z,100.00
2022-12-23T04:07:00.526Z,100.00
2022-12-23T04:09:35.212Z,100.00
2022-12-23T04:12:08.537Z,100.00
2022-12-23T04:14:48.922Z,100.00
2022-12-23T04:17:21.830Z,100.00
2022-12-23T04:19:55.344Z,100.00
2022-12-23T04:22:28.370Z,100.00
2022-12-23T04:25:01.362Z,100.00
2022-12-23T04:27:34.327Z,100.00
2022-12-23T04:30:10.841Z,100.00
2022-12-23T04:32:43.734Z,100.00
2022-12-23T04:35:20.455Z,100.00
2022-12-23T04:37:53.446Z,100.00
2022-12-23T04:40:26.468Z,100.00
2022-12-23T04:42:59.369Z,100.00
2022-12-23T04:45:34.796Z,100.00
2022-12-23T04:48:07.747Z,100.00
2022-12-23T04:50:40.702Z,100.00
2022-12-23T04:53:13.551Z,100.00
2022-12-23T04:55:51.184Z,100.00
2022-12-23T04:58:24.995Z,100.00
2022-12-23T05:01:12.296Z,100.00
2022-12-23T05:03:45.899Z,100.00
2022-12-23T05:06:13.034Z,100.00
2022-12-23T05:08:46.024Z,100.00
2022-12-23T05:11:19.636Z,100.00
2022-12-23T05:13:53.078Z,91.21
2022-12-23T05:16:31.038Z,76.21
2022-12-23T05:19:04.771Z,75.29
2022-12-23T05:21:38.468Z,68.29
2022-12-23T05:24:11.935Z,72.08
2022-12-23T05:26:59.780Z,72.27
2022-12-23T05:29:33.828Z,76.25
2022-12-23T05:32:06.975Z,88.37
2022-12-23T05:34:41.181Z,92.46
2022-12-23T05:37:14.423Z,96.75
2022-12-23T05:39:48.333Z,99.02
2022-12-23T05:42:21.363Z,99.68
2022-12-23T05:44:54.910Z,100.00
2022-12-23T05:47:28.162Z,100.00
2022-12-23T05:50:01.455Z,100.00
2022-12-23T05:52:34.320Z,100.00
2022-12-23T05:55:09.050Z,100.00
2022-12-23T05:57:42.147Z,100.00
2022-12-23T06:00:15.262Z,100.00
2022-12-23T06:02:53.630Z,100.00
2022-12-23T06:05:31.131Z,100.00
2022-12-23T06:08:04.765Z,100.00
2022-12-23T06:10:38.365Z,100.00
2022-12-23T06:13:11.813Z,100.00
2022-12-23T06:15:46.953Z,100.00
2022-12-23T06:18:20.951Z,100.00
2022-12-23T06:20:54.792Z,100.00
2022-12-23T06:23:37.453Z,100.00
2022-12-23T06:26:14.103Z,100.00
2022-12-23T06:28:46.881Z,100.00
2022-12-23T06:31:19.834Z,100.00
2022-12-23T06:33:52.825Z,100.00
2022-12-23T06:36:25.754Z,100.00
2022-12-23T06:38:58.692Z,100.00
2022-12-23T06:41:32.019Z,100.00
2022-12-23T06:44:05.419Z,100.00
2022-12-23T06:46:39.234Z,100.00
2022-12-23T06:49:13.765Z,100.00
2022-12-23T06:51:47.087Z,100.00
2022-12-23T06:54:23.106Z,100.00
2022-12-23T06:56:56.403Z,100.00
2022-12-23T06:59:29.261Z,100.00
2022-12-23T07:02:03.325Z,100.00
2022-12-23T07:04:36.439Z,100.00
2022-12-23T07:07:09.575Z,100.00
2022-12-23T07:09:42.396Z,100.00
2022-12-23T07:12:15.582Z,100.00
2022-12-23T07:14:48.698Z,100.00
2022-12-23T07:17:22.163Z,100.00
2022-12-23T07:19:55.779Z,100.00
2022-12-23T07:22:31.099Z,100.00
2022-12-23T07:25:07.244Z,100.00
2022-12-23T07:27:40.529Z,100.00
2022-12-23T07:30:14.147Z,100.00
2022-12-23T07:32:53.164Z,100.00
2022-12-23T07:35:26.903Z,100.00
2022-12-23T07:38:00.032Z,100.00
2022-12-23T07:40:33.387Z,100.00
2022-12-23T07:43:06.573Z,100.00
2022-12-23T07:45:39.452Z,100.00
2022-12-23T07:48:12.563Z,100.00
2022-12-23T07:50:45.592Z,100.00
2022-12-23T07:53:18.696Z,100.00
2022-12-23T07:55:56.400Z,100.00
2022-12-23T07:58:30.860Z,100.00
2022-12-23T08:01:06.535Z,94.83
2022-12-23T08:03:40.525Z,93.54
2022-12-23T08:06:16.726Z,92.03
2022-12-23T08:08:51.742Z,97.85
2022-12-23T08:11:24.755Z,91.85
2022-12-23T08:14:01.345Z,92.31
2022-12-23T08:16:43.009Z,92.99
2022-12-23T08:19:17.698Z,95.41
2022-12-23T08:21:50.851Z,87.98
2022-12-23T08:24:24.259Z,87.51
2022-12-23T08:26:57.657Z,85.79
2022-12-23T08:29:36.023Z,83.28
2022-12-23T08:32:10.271Z,80.60
2022-12-23T08:34:43.571Z,79.02
2022-12-23T08:37:16.608Z,77.34
2022-12-23T08:39:50.081Z,77.99
2022-12-23T08:42:23.115Z,75.17
2022-12-23T08:44:56.327Z,77.18
2022-12-23T08:47:29.818Z,76.03
2022-12-23T08:50:03.205Z,80.39
2022-12-23T08:52:36.258Z,74.62
2022-12-23T08:55:10.519Z,78.14
2022-12-23T08:57:43.870Z,78.21
2022-12-23T09:00:21.592Z,73.57
2022-12-23T09:02:54.888Z,76.34
2022-12-23T09:05:28.383Z,75.64
2022-12-23T09:08:02.091Z,76.41
2022-12-23T09:10:40.548Z,74.66
2022-12-23T09:13:19.992Z,78.08
2022-12-23T09:15:58.293Z,80.18
2022-12-23T09:18:31.622Z,84.37
2022-12-23T09:21:07.430Z,84.53
2022-12-23T09:23:42.105Z,84.05
2022-12-23T09:26:24.755Z,83.23
2022-12-23T09:28:58.353Z,86.24
2022-12-23T09:31:36.689Z,85.59
2022-12-23T09:34:10.801Z,82.11
2022-12-23T09:36:43.797Z,82.49
2022-12-23T09:39:16.827Z,86.84
2022-12-23T09:41:49.797Z,89.07
2022-12-23T09:44:46.916Z,82.76
2022-12-23T09:47:23.980Z,83.02
2022-12-23T09:50:20.079Z,84.24
2022-12-23T09:53:04.079Z,82.66
2022-12-23T09:56:09.520Z,82.10
2022-12-23T09:59:04.803Z,82.74
2022-12-23T10:01:52.513Z,86.09
2022-12-23T10:05:01.726Z,80.50
2022-12-23T10:07:45.952Z,82.37
2022-12-23T10:10:48.257Z,83.26
2022-12-23T10:13:27.248Z,82.53
2022-12-23T10:16:06.994Z,82.93
2022-12-23T10:19:01.774Z,86.00
2022-12-23T10:21:34.819Z,83.35
2022-12-23T10:24:16.301Z,80.09
2022-12-23T10:26:54.689Z,81.21
2022-12-23T10:29:32.031Z,82.83
2022-12-23T10:32:31.449Z,83.31
2022-12-23T10:35:21.973Z,82.30
2022-12-23T10:38:12.247Z,82.91
2022-12-23T10:41:09.902Z,82.28
2022-12-23T10:44:02.114Z,83.72
2022-12-23T10:47:12.843Z,82.79
2022-12-23T10:50:07.351Z,82.67
2022-12-23T10:52:43.231Z,82.95
2022-12-23T10:55:32.877Z,85.74
2022-12-23T10:58:14.880Z,83.04
2022-12-23T11:01:03.815Z,85.40
2022-12-23T11:03:44.300Z,90.23
2022-12-23T11:06:23.702Z,80.12
2022-12-23T11:08:57.752Z,74.83
2022-12-23T11:11:57.156Z,76.24
2022-12-23T11:14:35.880Z,79.53
2022-12-23T11:17:25.515Z,77.63
2022-12-23T11:20:10.418Z,79.37
2022-12-23T11:22:52.085Z,79.27
2022-12-23T11:25:30.465Z,79.14
2022-12-23T11:28:17.363Z,79.32
2022-12-23T11:30:55.640Z,79.14
2022-12-23T11:33:31.985Z,79.57
2022-12-23T11:36:14.229Z,79.46
2022-12-23T11:38:54.185Z,80.06
2022-12-23T11:41:33.736Z,79.74
2022-12-23T11:44:14.590Z,78.34
2022-12-23T11:46:47.861Z,76.76
2022-12-23T11:49:23.661Z,78.74
2022-12-23T11:52:05.637Z,76.57
2022-12-23T11:54:38.854Z,76.26
2022-12-23T11:57:19.047Z,74.08
2022-12-23T11:59:59.354Z,73.19
2022-12-23T12:02:40.919Z,71.77
2022-12-23T12:05:41.125Z,70.21
2022-12-23T12:08:20.387Z,69.58
2022-12-23T12:10:59.618Z,68.42
2022-12-23T12:13:42.589Z,67.16
2022-12-23T12:16:31.006Z,68.54
2022-12-23T12:19:19.291Z,71.01
2022-12-23T12:21:59.151Z,70.30
2022-12-23T12:24:39.092Z,74.52
2022-12-23T12:27:12.287Z,76.96
2022-12-23T12:30:04.468Z,80.18
2022-12-23T12:33:11.794Z,80.97
2022-12-23T12:35:52.035Z,80.94
2022-12-23T12:38:31.836Z,81.91
2022-12-23T12:41:21.881Z,82.06
2022-12-23T12:44:21.777Z,82.65
2022-12-23T12:47:28.178Z,83.64
2022-12-23T12:50:06.592Z,85.23
2022-12-23T12:52:41.467Z,84.47
2022-12-23T12:55:27.949Z,82.39
2022-12-23T12:58:01.822Z,83.05
2022-12-23T13:00:48.987Z,85.54
2022-12-23T13:03:42.845Z,83.94
2022-12-23T13:06:40.634Z,83.61
2022-12-23T13:09:23.265Z,84.89
2022-12-23T13:12:07.482Z,85.33
2022-12-23T13:14:43.029Z,85.19
2022-12-23T13:17:22.254Z,85.44
2022-12-23T13:20:22.121Z,87.12
2022-12-23T13:23:34.287Z,86.84
2022-12-23T13:26:14.097Z,86.66
2022-12-23T13:29:16.628Z,86.49
2022-12-23T13:32:14.442Z,86.81
2022-12-23T13:35:15.410Z,96.46
2022-12-23T13:37:54.560Z,87.46
2022-12-23T13:40:53.158Z,85.80
2022-12-23T13:43:45.109Z,86.41
2022-12-23T13:46:43.709Z,83.98
2022-12-23T13:49:32.091Z,83.90
2022-12-23T13:52:28.280Z,85.78
2022-12-23T13:55:35.112Z,87.29
2022-12-23T13:58:19.938Z,88.24
2022-12-23T14:01:18.902Z,89.33
2022-12-23T14:03:52.190Z,82.92
2022-12-23T14:06:25.730Z,82.96
2022-12-23T14:08:59.418Z,80.90
2022-12-23T14:11:34.179Z,74.45
2022-12-23T14:14:20.079Z,79.44
2022-12-23T14:17:42.603Z,83.30
2022-12-23T14:20:44.435Z,86.47
2022-12-23T14:23:29.987Z,88.85
2022-12-23T14:26:26.215Z,100.00
2022-12-23T14:29:26.577Z,89.49
2022-12-23T14:31:59.659Z,83.85
2022-12-23T14:34:34.268Z,85.32
2022-12-23T14:37:22.684Z,88.13
2022-12-23T14:39:55.784Z,90.49
2022-12-23T14:42:43.105Z,92.15
2022-12-23T14:45:35.676Z,92.88
2022-12-23T14:48:33.761Z,94.18
2022-12-23T14:51:09.866Z,95.78
2022-12-23T14:53:52.163Z,95.49
2022-12-23T14:56:28.303Z,100.00
2022-12-23T14:59:13.242Z,95.71
2022-12-23T15:01:51.511Z,87.60
2022-12-23T15:04:28.718Z,91.53
2022-12-23T15:07:14.052Z,90.76
2022-12-23T15:09:58.687Z,93.19
2022-12-23T15:12:39.123Z,97.94
2022-12-23T15:15:22.932Z,88.25
2022-12-23T15:18:04.090Z,80.86
2022-12-23T15:20:37.784Z,74.48
2022-12-23T15:23:19.794Z,79.35
2022-12-23T15:25:56.859Z,85.02
2022-12-23T15:28:41.487Z,92.53
2022-12-23T15:31:38.253Z,95.19
2022-12-23T15:34:23.163Z,98.10
2022-12-23T15:36:56.700Z,98.82
2022-12-23T15:39:36.902Z,100.00
2022-12-23T15:42:26.560Z,99.79
2022-12-23T15:44:59.605Z,88.29
2022-12-23T15:47:42.624Z,95.22
2022-12-23T15:50:20.170Z,100.00
2022-12-23T15:52:55.696Z,100.00
2022-12-23T15:55:32.603Z,100.00
2022-12-23T15:58:05.693Z,100.00
2022-12-23T16:00:41.702Z,100.00
2022-12-23T16:03:26.399Z,100.00
2022-12-23T16:05:53.843Z,100.00
2022-12-23T16:08:30.217Z,100.00
2022-12-23T16:11:18.476Z,100.00
2022-12-23T16:14:01.956Z,100.00
2022-12-23T16:16:43.289Z,100.00
2022-12-23T16:19:36.762Z,100.00
2022-12-23T16:22:26.990Z,100.00
2022-12-23T16:25:16.650Z,100.00
2022-12-23T16:27:56.787Z,100.00
2022-12-23T16:30:37.192Z,100.00
2022-12-23T16:33:35.271Z,100.00
2022-12-23T16:36:25.937Z,100.00
2022-12-23T16:39:08.890Z,100.00
2022-12-23T16:41:41.897Z,100.00
2022-12-23T16:44:15.153Z,100.00
2022-12-23T16:46:50.888Z,100.00
2022-12-23T16:49:31.212Z,100.00
2022-12-23T16:52:06.611Z,100.00
2022-12-23T16:54:39.582Z,100.00
2022-12-23T16:57:12.835Z,100.00
2022-12-23T16:59:46.314Z,100.00
2022-12-23T17:02:23.569Z,100.00
2022-12-23T17:04:56.476Z,100.00
2022-12-23T17:07:29.359Z,100.00
2022-12-23T17:10:02.408Z,100.00
2022-12-23T17:12:35.372Z,100.00
2022-12-23T17:15:22.690Z,100.00
2022-12-23T17:17:55.909Z,100.00
2022-12-23T17:20:30.490Z,100.00
2022-12-23T17:23:24.376Z,100.00
2022-12-23T17:25:57.416Z,100.00
2022-12-23T17:28:32.770Z,100.00
2022-12-23T17:31:13.777Z,100.00
2022-12-23T17:33:47.857Z,100.00
2022-12-23T17:36:21.162Z,100.00
2022-12-23T17:38:54.608Z,100.00
2022-12-23T17:41:34.066Z,100.00
2022-12-23T17:44:07.450Z,100.00
2022-12-23T17:46:44.844Z,100.00
2022-12-23T17:49:17.936Z,100.00
2022-12-23T17:51:50.861Z,100.00
2022-12-23T17:54:24.816Z,100.00
2022-12-23T17:56:57.704Z,100.00
2022-12-23T17:59:30.851Z,100.00
2022-12-23T18:02:20.760Z,100.00
2022-12-23T18:04:54.281Z,100.00
2022-12-23T18:07:27.577Z,100.00
2022-12-23T18:10:00.412Z,100.00
2022-12-23T18:12:44.481Z,100.00
2022-12-23T18:15:26.669Z,100.00
2022-12-23T18:17:59.430Z,100.00
2022-12-23T18:20:32.591Z,100.00
2022-12-23T18:23:05.596Z,100.00
2022-12-23T18:25:38.693Z,100.00
2022-12-23T18:28:15.479Z,100.00
2022-12-23T18:30:48.617Z,100.00
2022-12-23T18:33:22.581Z,100.00
2022-12-23T18:35:50.550Z,100.00
2022-12-23T18:38:26.145Z,100.00
2022-12-23T18:41:01.780Z,100.00
2022-12-23T18:43:34.982Z,100.00
2022-12-23T18:46:08.552Z,100.00
2022-12-23T18:48:41.520Z,100.00
2022-12-23T18:51:16.529Z,87.20
2022-12-23T18:53:51.004Z,99.08
2022-12-23T18:56:24.028Z,99.82
2022-12-23T18:58:57.270Z,100.00
2022-12-23T19:01:30.364Z,100.00
2022-12-23T19:04:03.483Z,100.00
2022-12-23T19:06:39.987Z,100.00
2022-12-23T19:09:25.014Z,100.00
2022-12-23T19:11:57.920Z,100.00
2022-12-23T19:14:31.589Z,100.00
2022-12-23T19:17:04.892Z,100.00
2022-12-23T19:19:40.437Z,100.00
2022-12-23T19:22:16.128Z,100.00
2022-12-23T19:25:05.103Z,100.00
2022-12-23T19:27:40.527Z,100.00
2022-12-23T19:30:20.486Z,100.00
2022-12-23T19:32:53.709Z,100.00
2022-12-23T19:35:26.587Z,100.00
2022-12-23T19:38:03.120Z,100.00
2022-12-23T19:40:36.107Z,100.00
2022-12-23T19:43:11.469Z,100.00
2022-12-23T19:45:59.518Z,100.00
2022-12-23T19:48:33.476Z,100.00
2022-12-23T19:51:11.289Z,100.00
2022-12-23T19:53:45.341Z,100.00
2022-12-23T19:56:19.851Z,100.00
2022-12-23T19:58:58.702Z,100.00
2022-12-23T20:01:34.431Z,100.00
2022-12-23T20:04:07.389Z,100.00
2022-12-23T20:06:41.509Z,100.00
2022-12-23T20:09:14.448Z,100.00
2022-12-23T20:11:48.966Z,100.00
2022-12-23T20:14:22.674Z,100.00
2022-12-23T20:16:55.607Z,100.00
2022-12-23T20:19:28.852Z,100.00
2022-12-23T20:22:01.798Z,100.00
2022-12-23T20:24:34.763Z,100.00
2022-12-23T20:27:11.436Z,100.00
2022-12-23T20:29:45.867Z,100.00
2022-12-23T20:32:21.372Z,100.00
2022-12-23T20:34:54.556Z,100.00
2022-12-23T20:37:27.535Z,100.00
2022-12-23T20:40:00.518Z,100.00
2022-12-23T20:42:33.849Z,100.00
2022-12-23T20:45:07.548Z,100.00
2022-12-23T20:47:40.924Z,100.00
2022-12-23T20:50:13.814Z,100.00
2022-12-23T20:52:47.068Z,100.00
2022-12-23T20:55:20.335Z,100.00
2022-12-23T20:57:53.545Z,100.00
2022-12-23T21:00:26.948Z,100.00
2022-12-23T21:03:05.257Z,100.00
2022-12-23T21:05:41.512Z,100.00
2022-12-23T21:08:14.720Z,100.00
2022-12-23T21:10:53.253Z,100.00
2022-12-23T21:13:26.187Z,100.00
2022-12-23T21:16:04.007Z,100.00
2022-12-23T21:18:40.967Z,100.00
2022-12-23T21:21:13.869Z,100.00
2022-12-23T21:23:47.050Z,100.00
2022-12-23T21:26:25.109Z,100.00
2022-12-23T21:28:59.808Z,100.00
2022-12-23T21:31:35.615Z,100.00
2022-12-23T21:34:09.136Z,100.00
2022-12-23T21:36:42.568Z,100.00
2022-12-23T21:39:16.562Z,100.00
2022-12-23T21:41:49.549Z,100.00
2022-12-23T21:44:22.387Z,100.00
2022-12-23T21:46:56.084Z,100.00
2022-12-23T21:49:29.577Z,100.00
2022-12-23T21:52:02.363Z,100.00
2022-12-23T21:54:36.836Z,100.00
2022-12-23T21:57:16.542Z,100.00
2022-12-23T21:59:49.743Z,100.00
2022-12-23T22:02:22.685Z,100.00
2022-12-23T22:04:55.667Z,100.00
2022-12-23T22:07:28.729Z,100.00
2022-12-23T22:10:01.670Z,100.00
2022-12-23T22:12:34.582Z,100.00
2022-12-23T22:15:11.632Z,100.00
2022-12-23T22:17:57.315Z,100.00
2022-12-23T22:20:30.217Z,100.00
2022-12-23T22:23:03.543Z,100.00
2022-12-23T22:25:36.477Z,100.00
2022-12-23T22:28:09.406Z,100.00
2022-12-23T22:30:42.348Z,100.00
2022-12-23T22:33:15.275Z,100.00
2022-12-23T22:35:55.562Z,100.00
2022-12-23T22:38:28.996Z,100.00
2022-12-23T22:41:02.094Z,100.00
2022-12-23T22:43:35.403Z,100.00
2022-12-23T22:46:08.679Z,100.00
2022-12-23T22:48:42.143Z,100.00
2022-12-23T22:51:18.025Z,100.00
2022-12-23T22:53:51.571Z,100.00
2022-12-23T22:56:25.723Z,100.00
2022-12-23T22:58:58.740Z,100.00
2022-12-23T23:01:35.213Z,100.00
2022-12-23T23:04:10.296Z,100.00
2022-12-23T23:06:43.347Z,100.00
2022-12-23T23:09:19.578Z,100.00
2022-12-23T23:11:52.976Z,100.00
2022-12-23T23:14:25.914Z,100.00
2022-12-23T23:16:59.035Z,100.00
2022-12-23T23:19:32.393Z,100.00
2022-12-23T23:22:05.249Z,100.00
2022-12-23T23:24:38.594Z,100.00
2022-12-23T23:27:12.132Z,100.00
2022-12-23T23:29:45.032Z,100.00
2022-12-23T23:32:18.628Z,100.00
2022-12-23T23:34:52.176Z,100.00
2022-12-23T23:37:24.960Z,100.00
2022-12-23T23:39:57.939Z,100.00
2022-12-23T23:42:30.931Z,100.00
2022-12-23T23:45:04.357Z,100.00
2022-12-23T23:47:37.341Z,100.00
2022-12-23T23:50:10.464Z,100.00
2022-12-23T23:52:43.477Z,100.00
2022-12-23T23:55:16.607Z,100.00
2022-12-23T23:57:49.709Z,100.00
